Time;durP1;ratioP1;P1;durP2;ratioP2;P2;SDS_P1;SDS_P2;PMS_P1;PMS_P2;Temp;Humidity;BMP_temperature;BMP_pressure;BME280_temperature;BME280_humidity;BME280_pressure;Samples;Min_cycle;Max_cycle;Signal;HPM_P1;HPM_P2
2023/03/04 00:01:28;;;;;;;13.80;8.33;;;6.20;46.40;;;;;;5078163;28;20459;-87
2023/03/04 00:03:55;;;;;;;13.90;9.07;;;6.10;46.10;;;;;;5080653;28;20439;-87
2023/03/04 00:06:22;;;;;;;15.80;8.13;;;6.10;46.40;;;;;;5079086;28;20430;-86
2023/03/04 00:08:49;;;;;;;15.53;7.80;;;6.10;46.20;;;;;;5113132;28;20783;-86
2023/03/04 00:11:16;;;;;;;17.83;9.20;;;6.10;46.00;;;;;;5085026;28;20462;-85
2023/03/04 00:13:44;;;;;;;21.30;8.90;;;6.10;45.90;;;;;;5095688;28;20848;-86
2023/03/04 00:16:11;;;;;;;17.33;9.40;;;6.10;46.00;;;;;;5078381;28;20431;-86
2023/03/04 00:18:38;;;;;;;13.07;8.30;;;6.10;46.40;;;;;;5081606;28;20447;-87
2023/03/04 00:21:05;;;;;;;18.07;8.27;;;6.10;46.30;;;;;;5086294;28;20452;-87
2023/03/04 00:23:32;;;;;;;12.80;8.40;;;6.10;46.00;;;;;;5088855;28;20449;-88
2023/03/04 00:25:59;;;;;;;15.57;8.43;;;6.10;45.80;;;;;;5072496;28;20442;-86
2023/03/04 00:28:26;;;;;;;14.97;8.17;;;6.10;46.00;;;;;;5096159;28;20454;-86
2023/03/04 00:30:55;;;;;;;17.87;8.80;;;6.00;46.60;;;;;;5082040;28;20445;-85
2023/03/04 00:33:21;;;;;;;13.43;7.90;;;5.90;47.30;;;;;;5095048;28;20458;-86
2023/03/04 00:35:48;;;;;;;12.73;7.67;;;6.00;46.70;;;;;;5071060;27;20491;-87
2023/03/04 00:38:15;;;;;;;15.97;7.90;;;6.00;46.40;;;;;;5091036;27;20938;-87
2023/03/04 00:40:42;;;;;;;12.87;7.97;;;6.00;46.10;;;;;;5089509;27;20453;-86
2023/03/04 00:43:09;;;;;;;12.43;6.80;;;5.90;46.00;;;;;;5075944;27;20470;-86
2023/03/04 00:45:36;;;;;;;23.80;8.73;;;5.90;46.50;;;;;;5082523;27;20854;-88
2023/03/04 00:48:05;;;;;;;13.53;7.07;;;5.50;47.20;;;;;;5080783;27;20982;-87
2023/03/04 00:50:32;;;;;;;10.37;7.43;;;5.40;47.50;;;;;;5080144;27;20469;-84
2023/03/04 00:53:00;;;;;;;11.90;7.67;;;5.40;47.20;;;;;;5083451;27;20466;-89
2023/03/04 00:55:27;;;;;;;14.33;8.40;;;5.40;47.40;;;;;;5082281;27;20457;-88
2023/03/04 00:57:54;;;;;;;17.13;7.40;;;5.50;47.70;;;;;;5083690;27;20798;-86
2023/03/04 01:00:22;;;;;;;14.07;7.93;;;5.40;48.10;;;;;;5069071;27;20522;-84
2023/03/04 01:02:49;;;;;;;14.77;6.60;;;5.50;47.30;;;;;;5086767;27;20481;-86
2023/03/04 01:05:17;;;;;;;15.53;6.60;;;5.60;47.10;;;;;;5094731;27;20451;-88
2023/03/04 01:07:44;;;;;;;9.23;6.23;;;5.40;47.20;;;;;;5069773;27;20446;-86
2023/03/04 01:10:14;;;;;;;9.53;6.00;;;5.30;47.50;;;;;;5086599;27;20463;-87
2023/03/04 01:12:41;;;;;;;15.23;8.47;;;5.30;48.00;;;;;;5110061;27;20573;-86
2023/03/04 01:15:09;;;;;;;13.03;6.43;;;5.30;47.70;;;;;;5103025;27;20446;-85
2023/03/04 01:17:36;;;;;;;11.33;7.17;;;5.40;47.10;;;;;;5089160;27;20875;-86
2023/03/04 01:20:04;;;;;;;17.33;7.70;;;5.40;46.60;;;;;;5096321;27;20972;-87
2023/03/04 01:22:33;;;;;;;19.67;11.50;;;5.30;47.30;;;;;;5088768;27;20484;-87
2023/03/04 01:25:00;;;;;;;20.30;11.60;;;5.30;47.20;;;;;;5089929;27;20439;-89
2023/03/04 01:27:27;;;;;;;18.70;10.00;;;5.40;47.60;;;;;;5093191;27;20440;-89
2023/03/04 01:29:53;;;;;;;15.70;8.57;;;5.40;47.20;;;;;;5100641;27;20455;-85
2023/03/04 01:32:22;;;;;;;12.60;7.23;;;5.40;47.50;;;;;;5108570;27;20533;-87
2023/03/04 01:34:49;;;;;;;14.93;7.70;;;5.10;49.40;;;;;;5093304;27;20454;-87
2023/03/04 01:37:16;;;;;;;12.57;6.97;;;5.00;49.10;;;;;;5091624;27;20473;-88
2023/03/04 01:39:44;;;;;;;14.23;7.00;;;5.10;49.00;;;;;;5098109;27;20476;-87
2023/03/04 01:42:18;;;;;;;11.80;7.43;;;5.10;48.60;;;;;;5108714;27;20474;-88
2023/03/04 01:44:45;;;;;;;13.87;6.90;;;5.20;48.30;;;;;;5105731;27;20509;-85
2023/03/04 01:47:13;;;;;;;8.73;6.70;;;5.20;47.80;;;;;;5092341;27;20438;-88
2023/03/04 01:49:40;;;;;;;16.60;7.97;;;5.10;48.10;;;;;;5076520;27;20434;-85
2023/03/04 01:52:11;;;;;;;10.90;6.67;;;5.10;48.30;;;;;;5107050;27;20888;-85
2023/03/04 01:54:39;;;;;;;14.33;8.40;;;5.10;48.30;;;;;;5090422;27;20447;-86
2023/03/04 01:57:17;;;;;;;13.33;7.90;;;5.10;48.90;;;;;;5101045;27;20471;-87
2023/03/04 01:59:44;;;;;;;14.20;7.90;;;5.10;48.10;;;;;;5080975;27;20434;-85
2023/03/04 02:02:12;;;;;;;16.73;9.13;;;5.10;47.70;;;;;;5103522;27;20541;-87
2023/03/04 02:04:41;;;;;;;20.80;14.67;;;5.10;47.30;;;;;;5071010;27;20451;-87
2023/03/04 02:07:08;;;;;;;16.27;10.13;;;5.10;47.20;;;;;;5077870;27;20453;-86
2023/03/04 02:09:37;;;;;;;17.27;10.80;;;4.80;48.80;;;;;;5085819;27;20537;-86
2023/03/04 02:12:05;;;;;;;15.20;8.83;;;4.80;48.90;;;;;;5076406;27;20476;-87
2023/03/04 02:14:33;;;;;;;15.53;8.47;;;4.80;49.00;;;;;;5094713;27;20450;-86
2023/03/04 02:17:00;;;;;;;10.47;8.30;;;4.80;48.20;;;;;;5101166;27;20454;-86
2023/03/04 02:19:41;;;;;;;17.03;8.67;;;4.90;47.80;;;;;;5103135;27;20446;-84
2023/03/04 02:22:08;;;;;;;17.63;9.30;;;4.90;47.50;;;;;;5091448;27;20465;-88
2023/03/04 02:24:41;;;;;;;10.83;7.60;;;4.90;47.60;;;;;;5083759;27;20974;-86
2023/03/04 02:27:09;;;;;;;14.43;7.47;;;4.80;48.60;;;;;;5088009;27;20438;-86
2023/03/04 02:29:36;;;;;;;18.00;8.30;;;4.90;48.00;;;;;;5099805;27;20450;-87
2023/03/04 02:32:04;;;;;;;18.93;9.00;;;4.90;47.70;;;;;;5101262;27;20470;-85
2023/03/04 02:34:35;;;;;;;17.17;7.70;;;4.90;47.70;;;;;;5088088;27;20450;-86
2023/03/04 02:37:03;;;;;;;15.30;8.27;;;4.90;47.60;;;;;;5097214;27;20797;-86
2023/03/04 02:39:34;;;;;;;12.00;8.13;;;4.80;48.20;;;;;;5092152;27;20454;-84
2023/03/04 02:42:03;;;;;;;19.30;8.27;;;4.80;48.30;;;;;;5074988;28;21000;-87
2023/03/04 02:44:34;;;;;;;14.33;8.50;;;4.80;48.80;;;;;;5075090;27;20438;-87
2023/03/04 02:47:03;;;;;;;17.73;7.53;;;4.80;48.60;;;;;;5083128;27;20489;-88
2023/03/04 02:49:32;;;;;;;10.43;7.70;;;4.90;48.50;;;;;;5105225;27;20814;-86
2023/03/04 02:52:02;;;;;;;15.47;9.00;;;4.80;48.60;;;;;;5100881;27;20727;-87
2023/03/04 02:54:29;;;;;;;11.87;7.47;;;4.30;51.10;;;;;;5100751;27;20951;-87
2023/03/04 02:56:58;;;;;;;16.50;8.27;;;4.30;52.40;;;;;;5101405;27;20536;-86
2023/03/04 02:59:26;;;;;;;17.43;9.27;;;4.30;51.50;;;;;;5073886;28;20549;-87
2023/03/04 03:01:54;;;;;;;15.10;8.43;;;4.10;52.50;;;;;;5073824;27;20462;-85
2023/03/04 03:04:22;;;;;;;15.37;7.67;;;3.80;52.80;;;;;;5074497;28;20443;-87
2023/03/04 03:06:52;;;;;;;15.67;9.10;;;3.60;53.20;;;;;;5100119;28;20478;-87
2023/03/04 03:09:19;;;;;;;11.60;7.47;;;3.70;54.00;;;;;;5075431;27;20439;-86
2023/03/04 03:11:47;;;;;;;17.50;8.57;;;4.00;53.10;;;;;;5069558;27;20477;-87
2023/03/04 03:14:14;;;;;;;13.90;7.23;;;4.10;53.30;;;;;;5067004;27;20438;-88
2023/03/04 03:16:42;;;;;;;21.03;8.80;;;4.20;53.40;;;;;;5080418;27;20441;-87
2023/03/04 03:19:10;;;;;;;16.10;7.47;;;4.20;53.70;;;;;;5117389;27;20513;-87
2023/03/04 03:21:37;;;;;;;15.80;8.57;;;4.00;53.70;;;;;;5074112;28;20474;-86
2023/03/04 03:24:05;;;;;;;13.27;7.40;;;4.30;53.60;;;;;;5072779;28;21080;-85
2023/03/04 03:26:32;;;;;;;15.60;9.43;;;4.50;53.30;;;;;;5075583;28;20783;-84
2023/03/04 03:28:59;;;;;;;16.60;7.43;;;4.60;53.00;;;;;;5092278;28;20448;-88
2023/03/04 03:31:28;;;;;;;14.03;7.60;;;4.80;52.90;;;;;;5107464;28;20560;-86
2023/03/04 03:33:54;;;;;;;32.30;13.00;;;4.80;52.70;;;;;;5094736;28;20442;-87
2023/03/04 03:36:23;;;;;;;17.37;9.00;;;4.70;53.30;;;;;;5101611;28;20628;-86
2023/03/04 03:38:50;;;;;;;16.10;8.80;;;4.80;53.20;;;;;;5082752;28;20458;-85
2023/03/04 03:41:17;;;;;;;18.67;9.20;;;4.90;52.70;;;;;;5090074;28;20469;-87
2023/03/04 03:43:44;;;;;;;11.63;8.60;;;4.80;53.10;;;;;;5101352;28;20473;-87
2023/03/04 03:46:11;;;;;;;19.00;8.90;;;4.70;52.80;;;;;;5083156;28;20446;-87
2023/03/04 03:48:37;;;;;;;19.60;7.63;;;4.40;53.50;;;;;;5093393;28;20453;-86
2023/03/04 03:51:05;;;;;;;18.60;8.90;;;4.30;54.10;;;;;;5068146;28;20450;-87
2023/03/04 03:53:33;;;;;;;12.83;8.00;;;4.40;54.40;;;;;;5093444;28;20938;-87
2023/03/04 03:56:00;;;;;;;15.53;9.83;;;4.60;53.20;;;;;;5119476;28;20446;-87
2023/03/04 03:58:27;;;;;;;17.80;8.80;;;4.60;53.50;;;;;;5099310;28;20525;-87
2023/03/04 04:00:54;;;;;;;16.50;9.30;;;4.80;52.80;;;;;;5077305;28;20840;-86
2023/03/04 04:03:21;;;;;;;16.00;7.90;;;4.60;53.00;;;;;;5089905;28;20481;-87
2023/03/04 04:05:48;;;;;;;12.57;8.03;;;4.20;53.90;;;;;;5074961;28;20445;-86
2023/03/04 04:08:15;;;;;;;15.63;9.13;;;3.90;54.70;;;;;;5084525;28;20813;-87
2023/03/04 04:10:44;;;;;;;22.50;8.93;;;4.10;54.90;;;;;;5099965;27;20484;-86
2023/03/04 04:13:11;;;;;;;18.40;8.53;;;4.10;55.80;;;;;;5070332;27;20639;-85
2023/03/04 04:15:38;;;;;;;19.60;10.00;;;4.20;55.60;;;;;;5098729;27;20960;-87
2023/03/04 04:18:06;;;;;;;20.97;9.60;;;4.10;55.90;;;;;;5121624;27;20443;-88
2023/03/04 04:20:33;;;;;;;27.60;9.80;;;4.40;55.00;;;;;;5084957;27;20510;-86
2023/03/04 04:23:00;;;;;;;14.10;9.10;;;4.20;55.50;;;;;;5072260;27;20469;-86
2023/03/04 04:25:27;;;;;;;24.83;11.80;;;4.30;55.90;;;;;;5089989;28;20450;-88
2023/03/04 04:27:55;;;;;;;21.40;10.60;;;4.50;55.60;;;;;;5080252;27;20450;-86
2023/03/04 04:30:22;;;;;;;18.17;10.53;;;4.40;55.80;;;;;;5090604;27;20453;-87
2023/03/04 04:32:49;;;;;;;22.67;10.07;;;4.70;55.50;;;;;;5094604;27;20476;-88
2023/03/04 04:35:16;;;;;;;26.57;10.07;;;4.90;54.60;;;;;;5106451;27;20454;-87
2023/03/04 04:37:43;;;;;;;16.83;10.30;;;5.00;54.50;;;;;;5107036;27;20481;-88
2023/03/04 04:40:12;;;;;;;19.97;10.43;;;5.00;54.50;;;;;;5096520;27;20822;-88
2023/03/04 04:42:39;;;;;;;20.47;9.77;;;5.00;54.40;;;;;;5094581;27;20515;-88
2023/03/04 04:45:11;;;;;;;18.93;9.83;;;5.20;54.50;;;;;;5099994;27;20446;-86
2023/03/04 04:47:38;;;;;;;21.10;9.70;;;5.40;53.50;;;;;;5098769;27;20450;-87
2023/03/04 04:50:06;;;;;;;22.53;10.10;;;5.30;54.00;;;;;;5098287;27;20446;-87
2023/03/04 04:52:33;;;;;;;25.43;10.97;;;5.40;53.50;;;;;;5074161;27;20462;-89
2023/03/04 04:55:00;;;;;;;19.93;9.67;;;5.30;53.70;;;;;;5090564;27;20445;-87
2023/03/04 04:57:27;;;;;;;21.13;9.17;;;5.40;53.20;;;;;;5071301;27;20508;-87
2023/03/04 04:59:54;;;;;;;25.30;10.73;;;5.50;53.10;;;;;;5075454;27;20447;-87
2023/03/04 05:02:22;;;;;;;19.30;9.07;;;5.40;53.00;;;;;;5093405;27;20474;-86
2023/03/04 05:04:49;;;;;;;21.40;12.10;;;5.30;53.10;;;;;;5082554;27;20469;-87
2023/03/04 05:07:16;;;;;;;24.33;11.00;;;5.00;54.30;;;;;;5070076;27;20533;-86
2023/03/04 05:09:43;;;;;;;19.93;11.03;;;4.80;55.20;;;;;;5080545;27;20451;-86
2023/03/04 05:12:10;;;;;;;26.37;11.50;;;4.90;55.10;;;;;;5105598;27;20473;-87
2023/03/04 05:14:37;;;;;;;28.90;12.60;;;4.90;55.20;;;;;;5077465;27;20817;-89
2023/03/04 05:17:04;;;;;;;20.00;10.40;;;5.10;55.30;;;;;;5089262;27;20448;-87
2023/03/04 05:19:32;;;;;;;27.03;13.00;;;5.30;54.90;;;;;;5069110;27;20474;-89
2023/03/04 05:21:59;;;;;;;26.27;11.63;;;5.40;54.70;;;;;;5075314;27;20473;-88
2023/03/04 05:24:26;;;;;;;25.57;12.03;;;5.40;54.70;;;;;;5107826;27;20459;-86
2023/03/04 05:26:53;;;;;;;25.13;11.70;;;5.50;54.40;;;;;;5093270;27;20458;-87
2023/03/04 05:29:20;;;;;;;25.40;11.00;;;5.60;54.00;;;;;;5091134;27;20574;-88
2023/03/04 05:31:47;;;;;;;30.23;12.00;;;5.70;53.20;;;;;;5082540;27;20470;-88
2023/03/04 05:34:14;;;;;;;21.27;9.87;;;5.50;53.60;;;;;;5088665;27;20442;-87
2023/03/04 05:36:43;;;;;;;25.37;11.40;;;5.50;54.30;;;;;;5098660;27;20434;-87
2023/03/04 05:39:10;;;;;;;26.60;13.60;;;5.60;54.40;;;;;;5070110;27;20485;-89
2023/03/04 05:41:37;;;;;;;32.03;13.07;;;5.70;54.00;;;;;;5069930;27;20481;-88
2023/03/04 05:44:04;;;;;;;27.63;13.40;;;5.70;53.90;;;;;;5074166;27;20546;-87
2023/03/04 05:46:31;;;;;;;23.03;11.93;;;5.30;54.70;;;;;;5070756;27;20463;-85
2023/03/04 05:48:58;;;;;;;31.47;12.77;;;5.60;54.60;;;;;;5080159;27;20903;-86
2023/03/04 05:51:25;;;;;;;37.50;13.47;;;5.70;54.20;;;;;;5075285;27;20476;-87
2023/03/04 05:53:53;;;;;;;31.10;12.43;;;5.90;53.80;;;;;;5073906;27;20487;-87
2023/03/04 05:56:21;;;;;;;30.33;14.03;;;5.90;53.60;;;;;;5090386;27;20451;-85
2023/03/04 05:58:48;;;;;;;34.53;15.43;;;5.80;54.10;;;;;;5090176;27;20450;-88
2023/03/04 06:01:15;;;;;;;30.80;15.97;;;5.60;54.30;;;;;;5070147;27;20824;-86
2023/03/04 06:03:43;;;;;;;36.70;15.40;;;5.50;55.10;;;;;;5097776;27;20537;-88
2023/03/04 06:06:10;;;;;;;41.47;14.47;;;5.50;55.00;;;;;;5108139;27;20443;-87
2023/03/04 06:08:37;;;;;;;33.43;13.63;;;5.40;55.40;;;;;;5073817;27;20470;-87
2023/03/04 06:11:06;;;;;;;40.47;15.20;;;5.40;55.60;;;;;;5070704;27;20461;-87
2023/03/04 06:13:33;;;;;;;28.03;14.40;;;5.70;55.00;;;;;;5080989;27;20442;-87
2023/03/04 06:16:01;;;;;;;36.17;15.83;;;5.90;54.60;;;;;;5104615;27;21137;-88
2023/03/04 06:18:28;;;;;;;34.33;15.10;;;5.80;54.20;;;;;;5070760;28;20561;-87
2023/03/04 06:20:58;;;;;;;35.23;14.70;;;5.70;54.90;;;;;;5096238;27;20453;-87
2023/03/04 06:23:25;;;;;;;37.57;14.17;;;5.90;54.80;;;;;;5079812;27;20484;-87
2023/03/04 06:25:53;;;;;;;37.90;16.77;;;6.10;54.30;;;;;;5079706;27;20987;-87
2023/03/04 06:28:22;;;;;;;32.27;15.90;;;6.20;53.60;;;;;;5072608;27;20449;-86
2023/03/04 06:30:51;;;;;;;30.53;15.37;;;6.00;54.50;;;;;;5102869;27;20529;-88
2023/03/04 06:33:19;;;;;;;32.27;14.47;;;6.10;53.90;;;;;;5102073;28;20458;-87
2023/03/04 06:35:46;;;;;;;31.43;14.83;;;6.20;53.80;;;;;;5072627;27;20477;-87
2023/03/04 06:38:13;;;;;;;46.17;21.17;;;6.20;53.20;;;;;;5093403;27;20458;-88
2023/03/04 06:40:40;;;;;;;42.73;19.97;;;6.20;53.20;;;;;;5075758;27;20473;-87
2023/03/04 06:43:07;;;;;;;36.40;16.87;;;6.00;54.00;;;;;;5099915;27;20467;-85
2023/03/04 06:45:35;;;;;;;30.97;14.50;;;6.20;53.80;;;;;;5086466;27;20453;-86
2023/03/04 06:48:02;;;;;;;25.03;11.80;;;6.10;53.40;;;;;;5076340;27;20474;-87
2023/03/04 06:50:29;;;;;;;24.13;13.40;;;6.00;53.20;;;;;;5075789;27;20443;-86
2023/03/04 06:52:56;;;;;;;24.70;12.50;;;6.00;53.80;;;;;;5075887;27;20553;-86
2023/03/04 06:55:23;;;;;;;31.63;15.63;;;6.10;53.80;;;;;;5101786;27;20458;-87
2023/03/04 06:57:51;;;;;;;24.70;13.27;;;6.30;53.20;;;;;;5081941;27;21134;-87
2023/03/04 07:00:19;;;;;;;29.37;13.30;;;6.30;53.30;;;;;;5080902;27;20462;-86
2023/03/04 07:02:47;;;;;;;26.00;13.10;;;6.40;53.50;;;;;;5097518;27;20477;-87
2023/03/04 07:05:14;;;;;;;26.70;13.07;;;6.60;53.20;;;;;;5080440;27;20469;-86
2023/03/04 07:07:41;;;;;;;26.40;13.47;;;6.60;53.00;;;;;;5067484;28;20454;-86
2023/03/04 07:10:10;;;;;;;27.57;12.03;;;6.70;53.00;;;;;;5059952;27;20461;-88
2023/03/04 07:12:37;;;;;;;26.17;13.50;;;6.70;52.80;;;;;;5057724;27;20479;-86
2023/03/04 07:15:04;;;;;;;31.80;12.80;;;6.80;52.90;;;;;;5091750;28;20438;-86
2023/03/04 07:17:33;;;;;;;21.37;10.13;;;6.80;52.50;;;;;;5072844;28;20709;-87
2023/03/04 07:20:02;;;;;;;23.53;11.37;;;6.60;51.90;;;;;;5094255;27;20446;-85
2023/03/04 07:22:29;;;;;;;23.80;11.80;;;6.40;52.70;;;;;;5079264;28;20466;-85
2023/03/04 07:24:56;;;;;;;21.67;12.33;;;6.30;53.00;;;;;;5067405;28;20469;-86
2023/03/04 07:27:23;;;;;;;21.80;12.30;;;6.50;53.20;;;;;;5091020;28;20454;-85
2023/03/04 07:29:50;;;;;;;21.57;10.37;;;6.70;53.10;;;;;;5069831;28;20462;-87
2023/03/04 07:32:17;;;;;;;19.23;10.43;;;6.80;52.80;;;;;;5059944;28;20987;-85
2023/03/04 07:34:43;;;;;;;25.47;11.20;;;6.90;52.40;;;;;;5075725;28;20442;-86
2023/03/04 07:37:12;;;;;;;20.50;10.70;;;7.00;51.90;;;;;;5063464;28;20449;-85
2023/03/04 07:39:39;;;;;;;19.20;10.20;;;7.10;51.90;;;;;;5064832;28;20457;-85
2023/03/04 07:42:06;;;;;;;28.13;13.67;;;7.10;51.40;;;;;;5095310;28;20462;-87
2023/03/04 07:44:38;;;;;;;22.30;11.30;;;7.10;51.70;;;;;;5059799;27;20576;-86
2023/03/04 07:47:05;;;;;;;21.57;11.87;;;7.10;51.70;;;;;;5072613;27;20446;-87
2023/03/04 07:49:32;;;;;;;19.03;9.17;;;7.20;51.80;;;;;;5078413;27;20449;-87
2023/03/04 07:52:03;;;;;;;16.20;9.47;;;7.20;51.80;;;;;;5098365;27;20458;-86
2023/03/04 07:54:31;;;;;;;18.30;9.80;;;7.20;51.40;;;;;;5073017;27;20434;-86
2023/03/04 07:56:58;;;;;;;23.00;9.93;;;7.30;51.40;;;;;;5090844;27;20458;-86
2023/03/04 07:59:25;;;;;;;17.77;9.70;;;7.40;51.10;;;;;;5065277;27;21031;-86
2023/03/04 08:01:52;;;;;;;18.50;10.47;;;7.30;51.30;;;;;;5088516;27;20470;-87
2023/03/04 08:04:19;;;;;;;16.83;9.60;;;7.30;50.80;;;;;;5077660;27;20500;-86
2023/03/04 08:06:47;;;;;;;24.20;11.87;;;7.40;50.90;;;;;;5060278;27;20458;-86
2023/03/04 08:09:14;;;;;;;21.93;10.73;;;7.50;51.00;;;;;;5064835;27;20813;-86
2023/03/04 08:11:43;;;;;;;21.93;9.53;;;7.50;50.90;;;;;;5070258;27;21014;-86
2023/03/04 08:14:11;;;;;;;19.10;11.97;;;7.40;50.80;;;;;;5099733;27;21315;-85
2023/03/04 08:16:38;;;;;;;23.00;13.20;;;7.30;51.30;;;;;;5114250;27;20469;-87
2023/03/04 08:19:06;;;;;;;23.07;12.63;;;7.20;51.10;;;;;;5081969;27;21467;-87
2023/03/04 08:21:34;;;;;;;29.03;13.53;;;7.10;51.20;;;;;;5085201;27;20466;-88
2023/03/04 08:24:06;;;;;;;26.80;14.07;;;7.00;51.70;;;;;;5087755;27;20840;-87
2023/03/04 08:26:37;;;;;;;31.57;14.50;;;6.90;51.90;;;;;;5075388;27;20941;-87
2023/03/04 08:29:05;;;;;;;23.20;12.27;;;6.80;52.00;;;;;;5093650;27;20469;-86
2023/03/04 08:31:33;;;;;;;24.43;12.40;;;6.80;52.40;;;;;;5070833;27;20874;-85
2023/03/04 08:34:01;;;;;;;28.53;14.47;;;6.90;52.30;;;;;;5085309;27;20452;-86
2023/03/04 08:36:28;;;;;;;35.07;14.70;;;6.90;52.30;;;;;;5087059;27;20453;-85
2023/03/04 08:38:55;;;;;;;31.10;13.30;;;6.80;52.30;;;;;;5079503;27;20994;-85
2023/03/04 08:41:24;;;;;;;22.03;13.07;;;6.80;52.90;;;;;;5082141;27;21882;-85
2023/03/04 08:43:51;;;;;;;30.43;15.47;;;6.80;52.70;;;;;;5078307;27;20461;-85
2023/03/04 08:46:19;;;;;;;28.53;13.97;;;6.80;52.50;;;;;;5078385;27;20975;-85
2023/03/04 08:48:46;;;;;;;24.80;13.47;;;6.70;52.60;;;;;;5065614;27;20443;-87
2023/03/04 08:51:15;;;;;;;22.73;12.30;;;6.70;52.60;;;;;;5089044;27;21687;-85
2023/03/04 08:53:43;;;;;;;28.30;12.60;;;6.70;52.60;;;;;;5091525;27;20473;-86
2023/03/04 08:56:11;;;;;;;20.23;11.93;;;6.80;52.20;;;;;;5077860;27;20449;-86
2023/03/04 08:58:38;;;;;;;25.53;12.40;;;6.90;52.00;;;;;;5079337;27;20434;-85
2023/03/04 09:01:07;;;;;;;22.37;12.23;;;7.00;51.80;;;;;;5093667;27;20520;-87
2023/03/04 09:03:36;;;;;;;30.83;13.50;;;7.00;51.80;;;;;;5126812;27;20474;-88
2023/03/04 09:06:04;;;;;;;22.57;12.43;;;7.10;52.10;;;;;;5093335;27;20492;-86
2023/03/04 09:08:32;;;;;;;24.33;12.03;;;7.20;51.80;;;;;;5115330;27;20458;-85
2023/03/04 09:10:59;;;;;;;19.57;12.70;;;7.20;51.90;;;;;;5075022;27;20465;-86
2023/03/04 09:13:28;;;;;;;20.93;11.93;;;7.10;51.60;;;;;;5102739;27;20452;-85
2023/03/04 09:15:55;;;;;;;21.53;9.60;;;7.20;51.60;;;;;;5083795;27;20811;-85
2023/03/04 09:18:23;;;;;;;18.97;11.00;;;7.20;50.60;;;;;;5068469;27;20430;-85
2023/03/04 09:20:52;;;;;;;24.63;14.77;;;7.30;50.90;;;;;;5064463;27;20467;-85
2023/03/04 09:23:19;;;;;;;20.27;11.17;;;7.50;51.30;;;;;;5083555;28;20473;-85
2023/03/04 09:25:48;;;;;;;23.03;10.87;;;7.60;50.60;;;;;;5096384;27;20469;-86
2023/03/04 09:28:15;;;;;;;19.13;10.13;;;7.60;49.50;;;;;;5081195;27;20446;-86
2023/03/04 09:30:43;;;;;;;14.60;8.60;;;7.70;49.20;;;;;;5087935;27;21089;-87
2023/03/04 09:33:10;;;;;;;16.40;9.30;;;7.80;49.00;;;;;;5077142;27;20501;-88
2023/03/04 09:35:37;;;;;;;19.40;9.63;;;7.80;48.70;;;;;;5091379;27;21146;-88
2023/03/04 09:38:05;;;;;;;19.63;8.97;;;8.00;49.10;;;;;;5074023;27;20519;-87
2023/03/04 09:40:37;;;;;;;15.17;9.77;;;7.80;48.20;;;;;;5102483;27;20443;-87
2023/03/04 09:43:06;;;;;;;16.47;8.77;;;7.80;48.20;;;;;;5089878;27;20496;-89
2023/03/04 09:45:38;;;;;;;16.43;9.40;;;7.80;48.20;;;;;;5078707;27;20660;-88
2023/03/04 09:48:06;;;;;;;17.10;9.53;;;7.80;48.50;;;;;;5086980;27;20455;-88
2023/03/04 09:50:44;;;;;;;16.83;9.60;;;7.90;48.10;;;;;;5079269;27;20865;-89
2023/03/04 09:53:20;;;;;;;19.13;9.70;;;8.00;48.70;;;;;;5090086;27;21004;-89
2023/03/04 09:55:51;;;;;;;17.67;8.50;;;7.90;48.60;;;;;;5096455;27;22713;-88
2023/03/04 09:58:33;;;;;;;19.13;8.90;;;7.80;48.80;;;;;;5099737;27;21069;-90
2023/03/04 10:01:07;;;;;;;22.80;8.93;;;7.60;48.20;;;;;;5067334;27;20446;-87
2023/03/04 10:03:42;;;;;;;12.37;8.97;;;7.80;49.20;;;;;;5083341;28;20445;-87
2023/03/04 10:06:13;;;;;;;17.23;8.47;;;7.80;49.00;;;;;;5067366;27;20458;-89
2023/03/04 10:08:49;;;;;;;11.23;7.50;;;7.70;48.30;;;;;;5075589;27;20450;-86
2023/03/04 10:11:20;;;;;;;19.07;10.33;;;7.70;49.10;;;;;;5093446;27;20458;-88
2023/03/04 10:13:55;;;;;;;21.93;8.13;;;7.70;48.80;;;;;;5094544;27;21182;-88
2023/03/04 10:16:26;;;;;;;12.20;8.67;;;7.70;48.50;;;;;;5101580;28;20480;-87
2023/03/04 10:18:56;;;;;;;13.00;8.50;;;7.60;49.00;;;;;;5080477;28;20482;-89
2023/03/04 10:21:29;;;;;;;17.67;8.43;;;7.80;49.00;;;;;;5080520;27;20518;-88
2023/03/04 10:23:59;;;;;;;13.63;8.00;;;7.80;48.70;;;;;;5072523;27;20822;-88
2023/03/04 10:26:31;;;;;;;15.40;9.40;;;7.90;49.30;;;;;;5072796;27;20451;-87
2023/03/04 10:29:01;;;;;;;17.87;11.03;;;8.10;49.30;;;;;;5082893;28;20539;-88
2023/03/04 10:31:35;;;;;;;23.47;11.63;;;8.10;49.40;;;;;;5071962;27;21553;-86
2023/03/04 10:34:03;;;;;;;15.03;9.47;;;8.30;49.20;;;;;;5073837;27;20450;-87
2023/03/04 10:36:41;;;;;;;12.73;7.00;;;8.30;48.10;;;;;;5081255;27;21170;-88
2023/03/04 10:39:13;;;;;;;12.97;7.40;;;8.40;48.20;;;;;;5089684;27;20442;-89
2023/03/04 10:41:43;;;;;;;12.30;7.07;;;8.40;48.30;;;;;;5086957;27;20497;-87
2023/03/04 10:44:16;;;;;;;17.63;7.70;;;8.20;47.80;;;;;;5089819;28;20443;-88
2023/03/04 10:46:46;;;;;;;16.27;6.90;;;8.40;47.60;;;;;;5096856;27;20435;-88
2023/03/04 10:49:17;;;;;;;15.10;9.07;;;8.40;47.80;;;;;;5064688;27;20983;-87
2023/03/04 10:51:46;;;;;;;17.70;6.57;;;8.50;47.80;;;;;;5069655;27;20945;-87
2023/03/04 10:54:25;;;;;;;12.87;6.30;;;8.30;47.50;;;;;;5081923;27;20505;-88
2023/03/04 10:57:01;;;;;;;11.87;6.90;;;8.30;48.30;;;;;;5081347;27;20844;-90
2023/03/04 10:59:46;;;;;;;14.90;6.63;;;8.00;48.00;;;;;;5067044;27;20529;-88
2023/03/04 11:02:25;;;;;;;15.00;7.23;;;8.00;48.30;;;;;;5070170;28;20459;-86
2023/03/04 11:04:56;;;;;;;15.47;6.90;;;8.10;48.70;;;;;;5103726;27;20823;-87
2023/03/04 11:07:25;;;;;;;22.17;7.23;;;8.20;48.30;;;;;;5086796;27;20459;-88
2023/03/04 11:09:54;;;;;;;14.10;7.70;;;8.20;48.60;;;;;;5070197;28;20442;-88
2023/03/04 11:12:31;;;;;;;18.27;9.03;;;8.30;48.10;;;;;;5069008;27;20482;-88
2023/03/04 11:14:58;;;;;;;14.83;8.47;;;8.30;48.20;;;;;;5070148;28;20464;-88
2023/03/04 11:17:27;;;;;;;17.67;6.67;;;8.30;48.00;;;;;;5085234;28;20423;-86
2023/03/04 11:19:58;;;;;;;14.07;6.93;;;8.40;48.10;;;;;;5060821;28;20819;-88
2023/03/04 11:22:28;;;;;;;17.83;6.67;;;8.20;47.80;;;;;;5086307;28;20512;-88
2023/03/04 11:25:05;;;;;;;15.70;7.53;;;8.30;47.80;;;;;;5097569;27;20450;-87
2023/03/04 11:27:40;;;;;;;17.63;6.53;;;8.40;48.10;;;;;;5097245;28;20446;-87
2023/03/04 11:30:26;;;;;;;12.93;6.30;;;8.30;47.80;;;;;;5081812;28;20429;-85
2023/03/04 11:32:58;;;;;;;18.47;6.57;;;8.30;47.60;;;;;;5079063;28;20966;-89
2023/03/04 11:35:30;;;;;;;11.50;6.20;;;8.30;47.80;;;;;;5072062;28;21032;-89
2023/03/04 11:38:05;;;;;;;18.70;6.37;;;8.40;48.30;;;;;;5086580;28;20443;-89
2023/03/04 11:40:39;;;;;;;19.97;6.50;;;8.40;47.60;;;;;;5108866;28;20434;-87
2023/03/04 11:43:12;;;;;;;11.93;5.90;;;8.20;48.20;;;;;;5085568;28;20470;-88
2023/03/04 11:46:01;;;;;;;14.37;7.20;;;8.30;48.40;;;;;;5092889;28;20463;-88
2023/03/04 11:48:42;;;;;;;13.37;5.73;;;8.50;48.30;;;;;;5093116;28;20435;-87
2023/03/04 11:51:15;;;;;;;14.93;5.70;;;8.60;47.90;;;;;;5077555;28;20442;-87
2023/03/04 11:53:47;;;;;;;15.23;5.63;;;8.70;47.80;;;;;;5083949;28;20450;-87
2023/03/04 11:56:29;;;;;;;13.17;6.07;;;8.50;47.40;;;;;;5074218;28;20457;-88
2023/03/04 11:59:25;;;;;;;14.00;7.10;;;8.50;47.20;;;;;;5066148;28;20457;-88
2023/03/04 12:02:00;;;;;;;7.17;4.97;;;8.30;47.90;;;;;;5083981;28;20479;-88
2023/03/04 12:04:47;;;;;;;15.97;7.07;;;8.20;48.00;;;;;;5066269;28;20523;-88
2023/03/04 12:07:28;;;;;;;13.77;7.27;;;8.30;48.30;;;;;;5078172;28;20461;-87
2023/03/04 12:10:09;;;;;;;13.30;5.47;;;8.40;48.00;;;;;;5072383;28;20442;-88
2023/03/04 12:12:58;;;;;;;14.93;5.53;;;8.40;48.10;;;;;;5068545;28;20592;-87
2023/03/04 12:15:31;;;;;;;11.50;6.00;;;8.50;48.00;;;;;;5082105;28;20434;-87
2023/03/04 12:18:18;;;;;;;13.57;5.03;;;8.70;48.40;;;;;;5077616;28;20496;-87
2023/03/04 12:20:56;;;;;;;14.63;6.33;;;8.80;47.50;;;;;;5059289;28;20491;-87
2023/03/04 12:23:39;;;;;;;17.77;6.90;;;8.70;47.90;;;;;;5068254;28;20885;-86
2023/03/04 12:26:15;;;;;;;13.63;5.50;;;8.50;48.00;;;;;;5081699;28;20470;-87
2023/03/04 12:28:51;;;;;;;10.83;6.00;;;8.60;48.40;;;;;;5101588;28;20445;-88
2023/03/04 12:31:33;;;;;;;10.57;5.93;;;8.70;48.40;;;;;;5060798;28;20434;-86
2023/03/04 12:34:37;;;;;;;11.10;5.33;;;8.70;48.10;;;;;;5068927;27;20453;-88
2023/03/04 12:37:32;;;;;;;11.80;6.10;;;8.80;48.10;;;;;;5086362;27;20441;-87
2023/03/04 12:40:23;;;;;;;12.23;6.83;;;8.70;47.50;;;;;;5100736;27;20446;-87
2023/03/04 12:43:06;;;;;;;13.70;6.90;;;8.70;48.40;;;;;;5073600;27;20480;-87
2023/03/04 12:45:43;;;;;;;11.77;6.30;;;8.80;48.00;;;;;;5121799;27;20488;-87
2023/03/04 12:48:19;;;;;;;12.00;6.83;;;8.70;48.20;;;;;;5074817;27;20456;-89
2023/03/04 12:50:55;;;;;;;16.73;6.87;;;8.80;48.10;;;;;;5073647;27;20477;-89
2023/03/04 12:53:30;;;;;;;14.23;7.10;;;8.90;48.00;;;;;;5091550;27;20473;-87
2023/03/04 12:55:59;;;;;;;16.43;5.63;;;8.70;47.50;;;;;;5069590;27;20443;-88